Impacts TAF Board
For situational awareness. Not to be used for flight planning purposes.
IDs:

KORD - Chicago/O'Hare Intl, IL, US

Issued at 1737 UTC 17 Jun 2019
Updated at 2037 UTC 17 Jun 2019
Potential Impact None Slight Moderate High
Time<<18/09Z 18/10Z 18/11Z 18/12Z 18/13Z 18/14Z 18/15Z 18/16Z 18/17Z 18/18Z 18/19Z 18/20Z 18/21Z>>
Type PRVL PRVL PRVL PRVL PRVL PRVL PRVL PRVL PRVL PRVL PRVL PRVL PRVL
VIS 3 3 3 3 3 3 3 3 >6 >6 >6 >6 >6
CIG 10 10 10 10 10 10 10 10 25 25 25 -- --
Cover OVC OVC OVC OVC OVC OVC OVC OVC BKN BKN BKN SCT SCT
FltCat MVFR MVFR MVFR MVFR MVFR MVFR MVFR MVFR MVFR MVFR MVFR VFR VFR
WX BR BR BR BR BR BR BR BR -- -- -- -- --
WDir 20 20 20 20 20 20 20 20 60 60 60 80 80
WSpd 3 3 3 3 3 3 3 3 5 5 5 6 6
WGst -- -- -- -- -- -- -- -- -- -- -- -- --
Raw TAF
KORD 171737Z 1718/1824 04008KT P6SM OVC020
  FM172100 04007KT P6SM BKN030
  FM180600 02003KT 3SM BR FEW004 SCT007 OVC010
  FM181700 06005KT P6SM BKN025
  FM182000 08006KT P6SM SCT025


METAR Board
Radar Display
Forecast Discussion
For situational awareness. Not to be used for flight planning purposes.